Time;durP1;ratioP1;P1;durP2;ratioP2;P2;SDS_P1;SDS_P2;PMS_P1;PMS_P2;Temp;Humidity;BMP_temperature;BMP_pressure;BME280_temperature;BME280_humidity;BME280_pressure;Samples;Min_cycle;Max_cycle;Signal;HPM_P1;HPM_P2
2024/04/21 00:01:35;;;;;;;5.50;3.83;;;3.80;99.90;;;;;;5343709;26;20033;-67
2024/04/21 00:04:02;;;;;;;5.53;4.15;;;3.90;99.90;;;;;;5342605;26;20353;-67
2024/04/21 00:06:29;;;;;;;6.03;4.38;;;3.90;99.90;;;;;;5315242;26;20001;-67
2024/04/21 00:08:57;;;;;;;5.35;4.40;;;3.80;99.90;;;;;;5345502;26;20001;-67
2024/04/21 00:11:24;;;;;;;6.00;4.47;;;3.90;99.90;;;;;;5345169;26;20005;-67
2024/04/21 00:13:50;;;;;;;6.38;4.80;;;3.90;99.90;;;;;;5341207;26;20032;-67
2024/04/21 00:16:18;;;;;;;6.65;4.43;;;3.90;99.90;;;;;;5342979;26;20012;-67
2024/04/21 00:18:45;;;;;;;5.93;4.63;;;3.90;99.90;;;;;;5345049;26;20353;-67
2024/04/21 00:21:12;;;;;;;6.40;4.47;;;3.80;99.90;;;;;;5345288;26;20044;-67
2024/04/21 00:23:39;;;;;;;7.40;4.68;;;3.80;99.90;;;;;;5343282;26;20469;-67
2024/04/21 00:26:06;;;;;;;5.80;4.70;;;3.80;99.90;;;;;;5345076;26;20005;-67
2024/04/21 00:28:33;;;;;;;7.18;4.68;;;3.70;99.90;;;;;;5314864;26;20033;-67
2024/04/21 00:31:00;;;;;;;5.63;4.22;;;3.80;99.90;;;;;;5339252;26;20016;-67
2024/04/21 00:33:27;;;;;;;4.78;3.78;;;3.80;99.90;;;;;;5343140;26;20004;-67
2024/04/21 00:35:54;;;;;;;6.75;3.95;;;3.80;99.90;;;;;;5343283;26;20037;-67
2024/04/21 00:38:21;;;;;;;6.28;4.63;;;3.80;99.90;;;;;;5344213;26;20001;-67
2024/04/21 00:40:48;;;;;;;5.15;4.18;;;3.80;99.90;;;;;;5339557;26;20416;-67
2024/04/21 00:43:15;;;;;;;5.47;3.88;;;3.80;99.90;;;;;;5344904;26;19997;-67
2024/04/21 00:45:46;;;;;;;5.30;4.15;;;3.80;99.90;;;;;;5344990;26;20086;-67
2024/04/21 00:48:14;;;;;;;4.65;4.07;;;3.80;99.90;;;;;;5337790;26;20016;-67
2024/04/21 00:50:53;;;;;;;5.65;3.83;;;3.80;99.90;;;;;;5344786;26;20001;-67
2024/04/21 00:53:22;;;;;;;5.15;4.10;;;3.70;99.90;;;;;;5341496;26;20453;-67
2024/04/21 00:55:53;;;;;;;3.78;3.38;;;3.70;99.90;;;;;;5340249;26;20018;-67
2024/04/21 00:58:20;;;;;;;3.83;3.00;;;3.70;99.90;;;;;;5342019;26;19997;-67
2024/04/21 01:00:52;;;;;;;4.38;3.50;;;3.60;99.90;;;;;;5340876;26;20008;-67
2024/04/21 01:03:19;;;;;;;4.47;3.33;;;3.70;99.90;;;;;;5341749;26;20011;-67
2024/04/21 01:05:46;;;;;;;4.30;3.55;;;3.70;99.90;;;;;;5344178;26;20839;-67
2024/04/21 01:08:13;;;;;;;4.50;3.40;;;3.70;99.90;;;;;;5342316;26;20079;-67
2024/04/21 01:10:40;;;;;;;5.63;3.17;;;3.70;99.90;;;;;;5344036;26;20001;-67
2024/04/21 01:13:11;;;;;;;3.60;2.83;;;3.60;99.90;;;;;;5343524;26;20005;-66
2024/04/21 01:15:38;;;;;;;3.78;3.22;;;3.60;99.90;;;;;;5343611;26;20567;-66
2024/04/21 01:18:06;;;;;;;3.30;3.00;;;3.60;99.90;;;;;;5343724;26;20001;-67
2024/04/21 01:20:34;;;;;;;3.47;3.03;;;3.60;99.90;;;;;;5343788;26;20012;-67
2024/04/21 01:23:06;;;;;;;4.35;3.33;;;3.60;99.90;;;;;;5338047;26;20021;-67
2024/04/21 01:25:39;;;;;;;3.83;3.08;;;3.70;99.90;;;;;;5342763;26;20001;-67
2024/04/21 01:28:06;;;;;;;3.47;2.67;;;3.60;99.90;;;;;;5344309;26;20015;-67
2024/04/21 01:30:33;;;;;;;3.40;2.97;;;3.60;99.90;;;;;;5342520;26;19997;-67
2024/04/21 01:33:04;;;;;;;3.33;2.58;;;3.60;99.90;;;;;;5342503;26;20011;-67
2024/04/21 01:35:32;;;;;;;3.72;2.97;;;3.60;99.90;;;;;;5342442;26;20387;-67
2024/04/21 01:37:59;;;;;;;2.90;2.45;;;3.60;99.90;;;;;;5342583;26;20013;-67
2024/04/21 01:40:26;;;;;;;3.33;2.50;;;3.60;99.90;;;;;;5344231;26;20032;-67
2024/04/21 01:42:52;;;;;;;3.22;2.28;;;3.60;99.90;;;;;;5342120;26;20001;-67
2024/04/21 01:45:20;;;;;;;2.97;2.50;;;3.50;99.90;;;;;;5344110;26;19997;-67
2024/04/21 01:47:47;;;;;;;3.35;2.70;;;3.50;99.90;;;;;;5338439;26;20497;-67
2024/04/21 01:50:13;;;;;;;3.53;2.70;;;3.50;99.90;;;;;;5340802;26;20001;-67
2024/04/21 01:52:40;;;;;;;3.53;2.70;;;3.50;99.90;;;;;;5343699;26;20001;-67
2024/04/21 01:55:08;;;;;;;3.38;2.85;;;3.50;99.90;;;;;;5342856;26;19997;-67
2024/04/21 01:57:36;;;;;;;3.92;3.47;;;3.40;99.90;;;;;;5313690;26;20001;-67
2024/04/21 02:00:09;;;;;;;4.10;3.20;;;3.40;99.90;;;;;;5314653;26;20005;-67
2024/04/21 02:02:38;;;;;;;4.72;3.38;;;3.40;99.90;;;;;;5314062;26;20016;-67
2024/04/21 02:05:05;;;;;;;5.22;3.42;;;3.30;99.90;;;;;;5361321;26;20025;-67
2024/04/21 02:07:32;;;;;;;4.13;3.17;;;3.20;99.90;;;;;;5343907;26;20051;-67
2024/04/21 02:09:59;;;;;;;4.88;4.13;;;3.30;99.90;;;;;;5343794;26;19997;-67
2024/04/21 02:12:26;;;;;;;4.90;4.00;;;3.30;99.90;;;;;;5356647;26;20039;-67
2024/04/21 02:14:53;;;;;;;5.50;4.22;;;3.30;99.90;;;;;;5342559;26;20005;-67
2024/04/21 02:17:20;;;;;;;5.10;3.67;;;3.20;99.90;;;;;;5343603;26;20001;-67
2024/04/21 02:19:47;;;;;;;5.65;4.13;;;3.20;99.90;;;;;;5343702;26;20416;-67
2024/04/21 02:22:14;;;;;;;7.03;4.22;;;3.10;99.90;;;;;;5341332;26;20028;-67
2024/04/21 02:24:44;;;;;;;5.78;4.68;;;3.20;99.90;;;;;;5341895;26;20009;-67
2024/04/21 02:27:11;;;;;;;8.57;5.82;;;3.10;99.90;;;;;;5343327;26;20001;-67
2024/04/21 02:29:38;;;;;;;5.25;3.90;;;3.10;99.90;;;;;;5343355;26;20005;-67
2024/04/21 02:32:06;;;;;;;6.03;4.25;;;3.10;99.90;;;;;;5343145;26;20001;-67
2024/04/21 02:34:32;;;;;;;5.38;4.13;;;3.10;99.90;;;;;;5341690;26;20001;-67
2024/04/21 02:36:59;;;;;;;4.95;4.05;;;3.10;99.90;;;;;;5343240;26;20472;-67
2024/04/21 02:39:26;;;;;;;5.47;4.15;;;3.20;99.90;;;;;;5341528;26;20001;-67
2024/04/21 02:41:53;;;;;;;5.47;4.10;;;3.10;99.90;;;;;;5339906;26;20117;-67
2024/04/21 02:44:25;;;;;;;5.43;4.07;;;3.20;99.90;;;;;;5343022;26;20079;-67
2024/04/21 02:46:52;;;;;;;5.78;4.03;;;3.10;99.90;;;;;;5341549;26;20001;-67
2024/04/21 02:49:19;;;;;;;5.10;3.80;;;3.10;99.90;;;;;;5342627;26;20013;-67
2024/04/21 02:51:46;;;;;;;4.75;3.75;;;3.10;99.90;;;;;;5342601;26;20033;-67
2024/04/21 02:54:13;;;;;;;5.10;4.05;;;3.10;99.90;;;;;;5342871;26;20083;-67
2024/04/21 02:56:40;;;;;;;7.65;4.68;;;3.20;99.90;;;;;;5342210;26;20070;-67
2024/04/21 02:59:07;;;;;;;5.03;4.22;;;3.10;99.90;;;;;;5343026;26;20453;-67
2024/04/21 03:01:34;;;;;;;4.68;3.90;;;3.10;99.90;;;;;;5313676;26;20029;-67
2024/04/21 03:04:01;;;;;;;5.95;4.13;;;3.10;99.90;;;;;;5346447;26;20476;-67
2024/04/21 03:06:28;;;;;;;6.22;4.85;;;3.10;99.90;;;;;;5346452;26;20390;-67
2024/04/21 03:09:00;;;;;;;4.43;3.70;;;3.10;99.90;;;;;;5341954;26;20001;-67
2024/04/21 03:11:27;;;;;;;3.78;3.38;;;3.00;99.90;;;;;;5344635;26;20075;-67
2024/04/21 03:13:54;;;;;;;5.40;3.75;;;3.10;99.90;;;;;;5345087;26;20009;-67
2024/04/21 03:16:21;;;;;;;6.88;4.43;;;3.10;99.90;;;;;;5345561;26;20759;-67
2024/04/21 03:18:48;;;;;;;4.63;3.63;;;3.00;99.90;;;;;;5346161;26;20020;-67
2024/04/21 03:21:15;;;;;;;3.85;3.22;;;3.00;99.90;;;;;;5344236;26;20005;-67
2024/04/21 03:23:47;;;;;;;5.40;3.85;;;3.00;99.90;;;;;;5344471;26;20008;-67
2024/04/21 03:26:19;;;;;;;5.07;3.75;;;3.00;99.90;;;;;;5343029;26;20339;-67
2024/04/21 03:28:46;;;;;;;6.60;3.88;;;3.00;99.90;;;;;;5344318;26;20005;-67
2024/04/21 03:31:13;;;;;;;4.95;3.85;;;3.00;99.90;;;;;;5345952;26;20552;-67
2024/04/21 03:33:40;;;;;;;5.18;3.88;;;3.00;99.90;;;;;;5312870;26;20042;-67
2024/04/21 03:36:12;;;;;;;4.93;3.67;;;3.00;99.90;;;;;;5342777;26;20001;-67
2024/04/21 03:38:39;;;;;;;7.50;4.03;;;2.90;99.90;;;;;;5345853;26;20005;-67
2024/04/21 03:41:07;;;;;;;5.93;4.03;;;2.90;99.90;;;;;;5344189;26;20005;-67
2024/04/21 03:43:34;;;;;;;5.57;3.83;;;2.90;99.90;;;;;;5345499;26;20437;-67
2024/04/21 03:46:00;;;;;;;5.15;3.92;;;2.90;99.90;;;;;;5344729;26;19997;-67
2024/04/21 03:48:27;;;;;;;5.00;4.00;;;2.90;99.90;;;;;;5345778;26;20013;-67
2024/04/21 03:50:54;;;;;;;4.45;3.85;;;2.90;99.90;;;;;;5339566;26;20454;-67
2024/04/21 03:53:26;;;;;;;4.88;3.55;;;2.90;99.90;;;;;;5343920;26;20009;-67
2024/04/21 03:55:53;;;;;;;5.10;3.60;;;2.90;99.90;;;;;;5345692;26;19996;-67
2024/04/21 03:58:20;;;;;;;4.95;3.30;;;2.90;99.90;;;;;;5345538;26;19997;-67
2024/04/21 04:00:48;;;;;;;4.63;3.33;;;2.90;99.90;;;;;;5336563;26;20431;-67
2024/04/21 04:03:19;;;;;;;5.25;3.30;;;2.90;99.90;;;;;;5344934;26;20001;-67
2024/04/21 04:05:46;;;;;;;5.60;3.45;;;2.90;99.90;;;;;;5345544;26;20012;-67
2024/04/21 04:08:13;;;;;;;4.45;3.13;;;2.90;99.90;;;;;;5345333;26;20005;-67
2024/04/21 04:10:42;;;;;;;4.63;3.53;;;2.90;99.90;;;;;;5345422;26;20457;-67
2024/04/21 04:13:09;;;;;;;4.88;3.28;;;2.90;99.90;;;;;;5342025;26;20041;-67
2024/04/21 04:15:36;;;;;;;4.63;3.30;;;3.00;99.90;;;;;;5344983;26;20028;-67
2024/04/21 04:18:03;;;;;;;4.72;3.47;;;2.90;99.90;;;;;;5345050;26;20020;-67
2024/04/21 04:20:30;;;;;;;4.03;3.22;;;2.90;99.90;;;;;;5343720;26;20005;-67
2024/04/21 04:22:57;;;;;;;5.35;3.28;;;3.00;99.90;;;;;;5344988;26;20001;-67
2024/04/21 04:25:24;;;;;;;5.07;3.28;;;2.90;99.90;;;;;;5342077;26;20518;-67
2024/04/21 04:27:51;;;;;;;2.90;2.60;;;2.90;99.90;;;;;;5337400;26;20016;-67
2024/04/21 04:30:18;;;;;;;4.40;3.58;;;3.00;99.90;;;;;;5345201;26;19997;-67
2024/04/21 04:32:45;;;;;;;3.30;2.67;;;3.00;99.90;;;;;;5344801;26;20041;-67
2024/04/21 04:35:12;;;;;;;4.13;3.03;;;3.00;99.90;;;;;;5341377;26;20016;-67
2024/04/21 04:37:40;;;;;;;3.80;3.08;;;3.00;99.90;;;;;;5345109;26;20013;-66
2024/04/21 04:40:07;;;;;;;3.35;2.83;;;2.90;99.90;;;;;;5343266;26;20094;-66
2024/04/21 04:42:34;;;;;;;3.15;2.60;;;3.00;99.90;;;;;;5344787;26;19997;-67
2024/04/21 04:45:01;;;;;;;3.38;2.75;;;3.00;99.90;;;;;;5344948;26;20016;-67
2024/04/21 04:47:28;;;;;;;4.22;2.85;;;3.00;99.90;;;;;;5340897;26;20032;-67
2024/04/21 04:49:55;;;;;;;3.40;2.75;;;3.00;99.90;;;;;;5345113;26;20016;-67
2024/04/21 04:52:22;;;;;;;3.72;2.70;;;3.00;99.90;;;;;;5344479;26;20012;-67
2024/04/21 04:54:49;;;;;;;3.50;2.47;;;3.00;99.90;;;;;;5341900;26;20001;-67
2024/04/21 04:57:15;;;;;;;2.72;2.30;;;3.00;99.90;;;;;;5343035;26;20048;-67
2024/04/21 04:59:42;;;;;;;3.67;2.28;;;3.00;99.90;;;;;;5344718;26;20012;-67
2024/04/21 05:02:09;;;;;;;2.90;1.92;;;3.10;99.90;;;;;;5344542;26;20000;-67
2024/04/21 05:04:41;;;;;;;4.10;2.22;;;3.10;99.90;;;;;;5336848;26;20088;-67
2024/04/21 05:07:08;;;;;;;3.13;2.40;;;3.10;99.90;;;;;;5339359;26;20031;-67
2024/04/21 05:09:35;;;;;;;3.17;1.92;;;3.10;99.90;;;;;;5342387;26;20016;-66
2024/04/21 05:12:07;;;;;;;4.75;1.90;;;3.10;99.90;;;;;;5339227;26;20069;-66
2024/04/21 05:14:34;;;;;;;4.22;2.50;;;3.10;99.90;;;;;;5341869;26;20004;-67
2024/04/21 05:17:06;;;;;;;3.50;2.40;;;3.10;99.90;;;;;;5341629;26;20037;-67
2024/04/21 05:19:33;;;;;;;4.00;2.92;;;3.20;99.90;;;;;;5344617;26;20071;-67
2024/04/21 05:22:00;;;;;;;3.92;2.42;;;3.20;99.90;;;;;;5340856;26;20001;-67
2024/04/21 05:24:28;;;;;;;3.40;2.58;;;3.20;99.90;;;;;;5310535;26;20518;-67
2024/04/21 05:27:02;;;;;;;2.92;2.25;;;3.20;99.90;;;;;;5321380;26;20638;-67
2024/04/21 05:29:29;;;;;;;3.55;1.85;;;3.20;99.90;;;;;;5323605;26;20009;-67
2024/04/21 05:31:56;;;;;;;3.60;2.10;;;3.20;99.90;;;;;;5326006;26;20033;-67
2024/04/21 05:34:23;;;;;;;2.75;2.10;;;3.20;99.90;;;;;;5321633;26;20458;-67
2024/04/21 05:36:49;;;;;;;2.60;2.10;;;3.20;99.90;;;;;;5326271;26;20006;-67
2024/04/21 05:39:16;;;;;;;6.82;3.13;;;3.30;99.90;;;;;;5317784;26;20021;-67
2024/04/21 05:41:43;;;;;;;3.92;1.90;;;3.30;99.90;;;;;;5327809;26;20009;-66
2024/04/21 05:44:10;;;;;;;5.75;2.10;;;3.30;99.90;;;;;;5313866;26;20081;-67
2024/04/21 05:46:37;;;;;;;5.05;2.08;;;3.30;99.90;;;;;;5310992;26;20006;-67
2024/04/21 05:49:03;;;;;;;4.07;2.00;;;3.40;99.90;;;;;;5302987;26;20335;-67
2024/04/21 05:51:30;;;;;;;2.40;1.70;;;3.50;99.90;;;;;;5309721;26;20466;-67
2024/04/21 05:53:57;;;;;;;3.17;2.03;;;3.50;99.90;;;;;;5318216;26;20472;-67
2024/04/21 05:56:24;;;;;;;4.20;1.92;;;3.50;99.90;;;;;;5321328;26;20025;-67
2024/04/21 05:58:53;;;;;;;3.08;2.05;;;3.50;99.90;;;;;;5318190;26;20027;-68
2024/04/21 06:01:20;;;;;;;2.70;2.10;;;3.60;99.90;;;;;;5359782;26;20004;-67
2024/04/21 06:03:52;;;;;;;2.92;1.80;;;3.60;99.90;;;;;;5316556;26;20005;-67
2024/04/21 06:06:22;;;;;;;4.07;2.10;;;3.60;99.90;;;;;;5324853;26;20049;-67
2024/04/21 06:08:49;;;;;;;2.95;1.85;;;3.50;99.90;;;;;;5320019;26;20074;-67
2024/04/21 06:11:16;;;;;;;2.15;1.55;;;3.60;99.90;;;;;;5324523;26;20503;-68
2024/04/21 06:13:43;;;;;;;3.47;2.30;;;3.70;99.90;;;;;;5327702;26;20084;-67
2024/04/21 06:16:10;;;;;;;3.00;2.25;;;3.70;99.90;;;;;;5320725;26;20024;-67
2024/04/21 06:18:37;;;;;;;5.32;2.20;;;3.60;99.90;;;;;;5331409;26;20037;-67
2024/04/21 06:21:04;;;;;;;2.55;2.10;;;3.60;99.90;;;;;;5311081;26;20020;-68
2024/04/21 06:23:31;;;;;;;4.10;2.30;;;3.70;99.90;;;;;;5323438;26;20002;-66
2024/04/21 06:25:57;;;;;;;4.82;2.53;;;3.70;99.90;;;;;;5312956;26;20017;-67
2024/04/21 06:28:24;;;;;;;4.43;2.78;;;3.70;99.90;;;;;;5322686;26;20005;-68
2024/04/21 06:30:51;;;;;;;4.47;2.67;;;3.70;99.90;;;;;;5320888;26;20014;-67
2024/04/21 06:33:18;;;;;;;3.33;2.83;;;3.80;99.90;;;;;;5278642;26;20014;-69
2024/04/21 06:35:45;;;;;;;4.43;2.90;;;3.80;99.90;;;;;;5318636;26;20463;-68
2024/04/21 06:38:12;;;;;;;4.88;2.97;;;3.80;99.90;;;;;;5329754;26;20029;-67
2024/04/21 06:40:40;;;;;;;4.30;2.80;;;3.80;99.90;;;;;;5332063;26;20049;-67
2024/04/21 06:43:12;;;;;;;3.88;2.70;;;3.80;99.90;;;;;;5318924;26;20001;-67
2024/04/21 06:45:46;;;;;;;4.55;3.20;;;3.80;99.90;;;;;;5324604;26;20012;-67
2024/04/21 06:48:13;;;;;;;4.82;3.47;;;3.80;99.90;;;;;;5330742;26;20017;-67
2024/04/21 06:50:46;;;;;;;6.65;4.65;;;3.80;99.90;;;;;;5313804;26;20008;-66
2024/04/21 06:53:13;;;;;;;4.20;2.97;;;3.90;99.90;;;;;;5322974;26;20010;-67
2024/04/21 06:55:41;;;;;;;6.57;4.40;;;4.00;99.90;;;;;;5315181;26;20002;-67
2024/04/21 06:58:08;;;;;;;5.88;3.72;;;4.00;99.90;;;;;;5318956;26;20006;-67
2024/04/21 07:00:35;;;;;;;5.90;3.30;;;3.90;99.90;;;;;;5307264;26;20423;-67
2024/04/21 07:03:07;;;;;;;5.60;3.22;;;3.90;99.90;;;;;;5286635;26;20017;-67
2024/04/21 07:05:34;;;;;;;5.00;4.20;;;3.90;99.90;;;;;;5320643;26;20002;-67
2024/04/21 07:08:01;;;;;;;6.28;3.83;;;3.90;99.90;;;;;;5316326;26;20006;-66
2024/04/21 07:10:28;;;;;;;7.38;4.93;;;3.90;99.90;;;;;;5310625;26;20005;-66
2024/04/21 07:12:55;;;;;;;5.68;3.67;;;3.90;99.90;;;;;;5327086;26;20017;-67
2024/04/21 07:15:22;;;;;;;9.55;4.00;;;4.00;99.90;;;;;;5325523;26;20010;-66
2024/04/21 07:17:49;;;;;;;4.82;4.32;;;4.00;99.90;;;;;;5317699;26;20075;-67
2024/04/21 07:20:18;;;;;;;6.03;4.20;;;4.00;99.90;;;;;;5326624;26;20064;-66
2024/04/21 07:22:45;;;;;;;4.32;3.42;;;4.10;99.90;;;;;;5321312;26;20021;-67
2024/04/21 07:25:14;;;;;;;4.78;3.55;;;4.20;99.90;;;;;;5323217;26;20024;-66
2024/04/21 07:27:41;;;;;;;5.65;4.03;;;4.20;99.90;;;;;;5321521;26;20056;-67
2024/04/21 07:30:09;;;;;;;5.63;3.80;;;4.30;99.90;;;;;;5317076;26;20084;-66
2024/04/21 07:32:36;;;;;;;5.40;3.75;;;4.20;99.90;;;;;;5319948;26;20017;-66
2024/04/21 07:35:03;;;;;;;4.70;3.40;;;4.30;99.90;;;;;;5323136;26;20036;-66
2024/04/21 07:37:30;;;;;;;4.85;3.47;;;4.30;99.90;;;;;;5313965;26;20009;-66
2024/04/21 07:40:02;;;;;;;4.80;3.65;;;4.30;99.90;;;;;;5327620;26;20394;-66
2024/04/21 07:42:29;;;;;;;6.60;5.30;;;4.30;99.90;;;;;;5309874;26;20009;-66
2024/04/21 07:44:56;;;;;;;6.47;4.78;;;4.20;99.90;;;;;;5316732;26;20011;-66
2024/04/21 07:47:24;;;;;;;5.53;4.43;;;4.30;99.90;;;;;;5311586;26;20105;-66
2024/04/21 07:49:56;;;;;;;3.53;1.98;;;4.30;99.90;;;;;;5337449;26;20010;-66
2024/04/21 07:52:23;;;;;;;2.47;1.80;;;4.20;99.90;;;;;;5314410;26;20362;-66
2024/04/21 07:54:50;;;;;;;3.03;1.95;;;4.10;99.90;;;;;;5323839;26;20005;-66
2024/04/21 07:57:17;;;;;;;2.10;1.65;;;4.00;99.90;;;;;;5312081;26;20002;-66
2024/04/21 07:59:44;;;;;;;2.55;2.35;;;3.80;99.90;;;;;;5321847;26;20020;-66
2024/04/21 08:02:11;;;;;;;3.13;1.80;;;3.70;99.90;;;;;;5324954;26;20005;-66
2024/04/21 08:04:38;;;;;;;3.20;2.25;;;3.60;99.90;;;;;;5326515;26;20048;-66
2024/04/21 08:07:10;;;;;;;4.85;2.50;;;3.50;99.90;;;;;;5320432;26;20386;-66
2024/04/21 08:09:42;;;;;;;6.38;3.38;;;3.40;99.90;;;;;;5325345;26;20001;-66
2024/04/21 08:12:14;;;;;;;4.45;2.90;;;3.40;99.90;;;;;;5316573;26;20080;-66
2024/04/21 08:14:41;;;;;;;3.65;2.75;;;3.40;99.90;;;;;;5321939;26;20037;-66
2024/04/21 08:17:08;;;;;;;3.63;2.80;;;3.30;99.90;;;;;;5329521;26;20002;-67
2024/04/21 08:19:40;;;;;;;3.03;2.72;;;3.30;99.90;;;;;;5312315;26;20008;-66
2024/04/21 08:22:07;;;;;;;2.53;2.00;;;3.40;99.90;;;;;;5313072;26;20020;-66
2024/04/21 08:24:36;;;;;;;3.83;2.38;;;3.30;99.90;;;;;;5317511;26;20037;-66
2024/04/21 08:27:08;;;;;;;;;;;3.30;99.90;;;;;;5322494;26;20006;-66
2024/04/21 08:29:34;;;;;;;3.33;2.47;;;3.30;99.90;;;;;;5320879;26;19927;-66
2024/04/21 08:32:02;;;;;;;2.33;2.00;;;3.30;99.90;;;;;;5327158;26;20013;-66
2024/04/21 08:34:29;;;;;;;2.20;2.00;;;3.30;99.90;;;;;;5322737;26;20016;-66
2024/04/21 08:36:55;;;;;;;2.65;1.92;;;3.20;99.90;;;;;;5333486;26;20012;-66
2024/04/21 08:39:22;;;;;;;2.58;1.98;;;3.20;99.90;;;;;;5316999;26;20040;-65
2024/04/21 08:41:50;;;;;;;1.98;1.75;;;3.20;99.90;;;;;;5321800;26;20375;-66
2024/04/21 08:44:17;;;;;;;2.10;1.65;;;3.20;99.90;;;;;;5324281;26;20437;-66
2024/04/21 08:46:44;;;;;;;3.50;2.55;;;3.10;99.90;;;;;;5323718;26;19997;-65
2024/04/21 08:49:11;;;;;;;3.50;2.92;;;3.10;99.90;;;;;;5314940;26;20052;-65
2024/04/21 08:51:40;;;;;;;33.10;18.80;;;3.00;99.90;;;;;;5317104;26;20006;-66
2024/04/21 08:54:07;;;;;;;4.05;2.13;;;3.00;99.90;;;;;;5311994;26;20002;-66
2024/04/21 08:56:36;;;;;;;5.00;3.33;;;3.00;99.90;;;;;;5312804;26;20060;-66
2024/04/21 08:59:03;;;;;;;1.33;1.13;;;3.10;99.90;;;;;;5302482;26;20349;-65
2024/04/21 09:01:30;;;;;;;2.72;2.35;;;3.00;99.90;;;;;;5316988;26;20079;-66
2024/04/21 09:03:57;;;;;;;1.75;1.55;;;3.00;99.90;;;;;;5308058;26;20704;-66
2024/04/21 09:06:26;;;;;;;1.27;1.02;;;2.90;99.90;;;;;;5311058;26;20005;-66
2024/04/21 09:08:54;;;;;;;1.42;1.00;;;3.00;99.90;;;;;;5311711;26;20032;-66
2024/04/21 09:11:21;;;;;;;7.00;6.03;;;3.10;99.90;;;;;;5373233;26;20004;-65
2024/04/21 09:13:49;;;;;;;1.95;1.67;;;3.20;99.90;;;;;;5318472;26;20458;-66
2024/04/21 09:16:23;;;;;;;3.20;2.40;;;3.20;99.90;;;;;;5320220;26;20017;-66
2024/04/21 09:18:50;;;;;;;1.60;1.50;;;3.30;99.90;;;;;;5323483;26;20004;-66
2024/04/21 09:21:17;;;;;;;3.08;1.92;;;3.30;99.90;;;;;;5320638;26;20019;-66
2024/04/21 09:23:44;;;;;;;1.80;1.40;;;3.30;99.90;;;;;;5318916;26;20017;-66
2024/04/21 09:26:11;;;;;;;1.70;1.30;;;3.40;99.90;;;;;;5321297;26;20084;-67
2024/04/21 09:28:38;;;;;;;2.85;2.42;;;3.50;99.90;;;;;;5320809;26;20010;-66
2024/04/21 09:31:07;;;;;;;3.00;2.58;;;3.50;99.90;;;;;;5312301;26;20014;-66
2024/04/21 09:33:35;;;;;;;2.35;1.92;;;3.50;99.90;;;;;;5320869;26;20014;-66
2024/04/21 09:36:02;;;;;;;3.42;2.42;;;3.60;99.90;;;;;;5314589;26;20014;-66
2024/04/21 09:38:29;;;;;;;3.58;2.15;;;3.60;99.90;;;;;;5311886;26;20013;-66
2024/04/21 09:40:57;;;;;;;4.38;2.55;;;3.60;99.90;;;;;;5307282;26;20020;-66
2024/04/21 09:43:29;;;;;;;3.60;2.08;;;3.50;99.90;;;;;;5315270;26;20001;-66
2024/04/21 09:45:59;;;;;;;1.88;1.58;;;3.40;99.90;;;;;;5311645;26;20020;-65
2024/04/21 09:48:30;;;;;;;6.90;3.63;;;3.40;99.90;;;;;;5312648;26;20357;-66
2024/04/21 09:50:57;;;;;;;7.45;4.40;;;3.50;99.90;;;;;;5310742;26;20032;-66
2024/04/21 09:53:26;;;;;;;4.88;2.80;;;3.40;99.90;;;;;;5326692;26;20049;-66
2024/04/21 09:55:55;;;;;;;2.30;1.77;;;3.40;99.90;;;;;;5315754;26;20451;-66
2024/04/21 09:58:27;;;;;;;1.95;1.75;;;3.40;99.90;;;;;;5319722;26;20470;-66
2024/04/21 10:00:56;;;;;;;2.13;1.73;;;3.40;99.90;;;;;;5321395;26;20775;-65
2024/04/21 10:03:24;;;;;;;2.72;1.85;;;3.40;99.90;;;;;;5317844;26;20084;-65
2024/04/21 10:05:54;;;;;;;2.95;1.90;;;3.40;99.90;;;;;;5316298;26;20041;-66
2024/04/21 10:08:22;;;;;;;2.50;1.90;;;3.50;99.90;;;;;;5294970;26;20360;-66
2024/04/21 10:10:54;;;;;;;3.50;2.23;;;3.50;99.90;;;;;;5313650;26;20098;-66
2024/04/21 10:13:22;;;;;;;2.78;1.92;;;3.50;99.90;;;;;;5318613;26;20029;-66
2024/04/21 10:15:49;;;;;;;2.85;2.13;;;3.40;99.90;;;;;;5319554;26;20081;-66
2024/04/21 10:18:23;;;;;;;2.67;2.08;;;3.40;99.90;;;;;;5315130;26;20014;-66
2024/04/21 10:20:50;;;;;;;2.45;2.17;;;3.40;99.90;;;;;;5309253;26;20017;-66
2024/04/21 10:23:22;;;;;;;3.17;2.17;;;3.40;99.90;;;;;;5312550;26;20996;-66
2024/04/21 10:25:49;;;;;;;1.63;1.52;;;3.40;99.90;;;;;;5313745;26;20006;-66
2024/04/21 10:28:28;;;;;;;2.30;1.80;;;3.50;99.90;;;;;;5325811;26;20082;-66
2024/04/21 10:31:05;;;;;;;3.95;2.22;;;3.60;99.90;;;;;;5341458;26;20006;-66
2024/04/21 10:33:32;;;;;;;2.53;1.23;;;3.70;99.90;;;;;;5317841;26;20005;-66
2024/04/21 10:35:59;;;;;;;4.03;2.13;;;3.70;99.90;;;;;;5316884;26;20006;-66
2024/04/21 10:38:27;;;;;;;3.85;2.08;;;3.80;99.90;;;;;;5315623;26;20490;-66
2024/04/21 10:40:59;;;;;;;1.10;1.00;;;3.80;99.90;;;;;;5310309;26;20017;-66
2024/04/21 10:43:28;;;;;;;1.63;1.27;;;3.90;99.90;;;;;;5317910;26;20010;-66
2024/04/21 10:45:58;;;;;;;1.20;1.00;;;3.80;99.90;;;;;;5285984;26;20342;-66
2024/04/21 10:48:25;;;;;;;1.42;0.80;;;3.90;99.90;;;;;;5317172;26;20002;-66
2024/04/21 10:50:53;;;;;;;1.20;0.82;;;4.00;99.90;;;;;;5313109;26;20005;-66
2024/04/21 10:53:20;;;;;;;1.20;1.05;;;3.90;99.90;;;;;;5313131;26;20016;-66
2024/04/21 10:55:51;;;;;;;5.80;4.38;;;4.00;99.90;;;;;;5313921;26;20017;-66
2024/04/21 10:58:19;;;;;;;4.32;2.85;;;4.10;99.90;;;;;;5330104;26;20385;-66
2024/04/21 11:00:46;;;;;;;25.05;14.85;;;4.10;99.90;;;;;;5320437;26;20009;-66
2024/04/21 11:03:14;;;;;;;10.52;7.55;;;4.20;99.90;;;;;;5307834;26;20010;-66
2024/04/21 11:05:52;;;;;;;1.80;1.40;;;4.30;99.90;;;;;;5307313;26;20013;-66
2024/04/21 11:08:23;;;;;;;1.58;1.17;;;4.30;99.90;;;;;;5320622;26;20488;-66
2024/04/21 11:10:50;;;;;;;0.98;0.70;;;4.30;99.90;;;;;;5298964;26;20033;-66
2024/04/21 11:13:17;;;;;;;0.60;0.40;;;4.30;99.90;;;;;;5312736;26;20037;-66
2024/04/21 11:15:44;;;;;;;1.08;0.80;;;4.30;99.90;;;;;;5312066;26;20084;-66
2024/04/21 11:18:13;;;;;;;1.02;0.93;;;4.20;99.90;;;;;;5315603;26;20020;-66
2024/04/21 11:20:40;;;;;;;2.10;1.90;;;4.30;99.90;;;;;;5322778;26;20057;-66
2024/04/21 11:23:09;;;;;;;1.40;1.20;;;4.40;99.90;;;;;;5312480;26;20013;-66
2024/04/21 11:25:37;;;;;;;1.50;1.38;;;4.50;99.90;;;;;;5321668;26;20017;-66
2024/04/21 11:28:10;;;;;;;0.70;0.68;;;4.60;99.90;;;;;;5316187;26;20001;-67
2024/04/21 11:30:38;;;;;;;1.17;1.02;;;4.80;99.90;;;;;;5314305;26;20351;-66
2024/04/21 11:33:04;;;;;;;2.00;1.80;;;4.90;99.90;;;;;;5325473;26;20021;-66
2024/04/21 11:35:32;;;;;;;1.38;1.27;;;5.00;99.90;;;;;;5324065;26;20005;-67
2024/04/21 11:37:59;;;;;;;1.05;0.95;;;5.20;99.90;;;;;;5307695;26;20009;-67
2024/04/21 11:40:27;;;;;;;1.38;1.20;;;5.20;99.90;;;;;;5315626;26;20383;-67
2024/04/21 11:43:00;;;;;;;1.80;1.70;;;5.20;99.90;;;;;;5321620;26;20481;-67
2024/04/21 11:45:28;;;;;;;1.33;1.23;;;5.30;99.90;;;;;;5324790;26;20349;-67
2024/04/21 11:47:59;;;;;;;5.90;5.30;;;5.40;99.90;;;;;;5298815;26;20046;-67
2024/04/21 11:50:27;;;;;;;1.45;1.13;;;5.50;99.90;;;;;;5322277;26;20032;-67
2024/04/21 11:52:58;;;;;;;0.60;0.60;;;5.60;99.90;;;;;;5325354;26;20006;-67
2024/04/21 11:55:30;;;;;;;0.90;0.80;;;5.70;99.90;;;;;;5323768;26;20358;-67
2024/04/21 11:57:57;;;;;;;0.57;0.50;;;5.80;99.90;;;;;;5325763;26;20358;-67
2024/04/21 12:00:24;;;;;;;0.52;0.40;;;5.90;99.90;;;;;;5327513;26;20086;-67
2024/04/21 12:02:56;;;;;;;2.30;2.10;;;6.00;99.90;;;;;;5320818;26;20021;-67
2024/04/21 12:05:23;;;;;;;0.70;0.70;;;6.10;99.90;;;;;;5331556;26;20033;-67
2024/04/21 12:07:50;;;;;;;1.63;1.20;;;6.20;99.90;;;;;;5317785;26;20026;-67
2024/04/21 12:10:17;;;;;;;0.68;0.57;;;6.30;99.90;;;;;;5315853;26;20353;-67
2024/04/21 12:12:43;;;;;;;1.00;0.70;;;6.40;99.90;;;;;;5314503;26;20029;-67
2024/04/21 12:15:10;;;;;;;1.48;1.20;;;6.30;99.90;;;;;;5315118;26;20005;-67
2024/04/21 12:17:37;;;;;;;1.00;0.88;;;6.30;99.90;;;;;;5317859;26;20005;-66
2024/04/21 12:20:05;;;;;;;3.20;3.00;;;6.40;99.90;;;;;;5327430;26;20009;-67
2024/04/21 12:22:36;;;;;;;1.35;1.00;;;6.50;99.90;;;;;;5315128;26;20020;-67
2024/04/21 12:25:04;;;;;;;1.58;1.48;;;6.50;99.90;;;;;;5319139;26;20005;-67
2024/04/21 12:27:31;;;;;;;0.77;0.60;;;6.50;99.90;;;;;;5323414;26;20419;-67
2024/04/21 12:29:58;;;;;;;2.53;1.00;;;6.50;99.90;;;;;;5324055;26;20083;-67
2024/04/21 12:32:25;;;;;;;0.90;0.77;;;6.60;99.90;;;;;;5323091;26;20472;-67
2024/04/21 12:34:52;;;;;;;0.85;0.73;;;6.60;99.90;;;;;;5318702;26;20002;-67
2024/04/21 12:37:19;;;;;;;1.40;1.00;;;6.60;99.90;;;;;;5314913;26;20033;-66
2024/04/21 12:39:45;;;;;;;1.52;1.00;;;6.60;99.90;;;;;;5321354;26;20038;-67
2024/04/21 12:42:12;;;;;;;2.03;1.83;;;6.60;99.90;;;;;;5328135;26;20008;-67
2024/04/21 12:44:44;;;;;;;2.20;1.88;;;6.60;99.90;;;;;;5316356;26;20001;-67
2024/04/21 12:47:12;;;;;;;2.17;1.90;;;6.60;99.90;;;;;;5314060;26;20016;-67
2024/04/21 12:49:39;;;;;;;2.35;1.08;;;6.60;99.90;;;;;;5314255;26;20017;-67
2024/04/21 12:52:06;;;;;;;1.05;0.90;;;6.70;99.90;;;;;;5320501;26;20867;-66
2024/04/21 12:54:33;;;;;;;2.80;1.92;;;6.70;99.90;;;;;;5320701;26;20005;-67
2024/04/21 12:57:00;;;;;;;3.42;2.80;;;6.70;99.90;;;;;;5325379;26;20020;-67
2024/04/21 12:59:27;;;;;;;1.40;1.10;;;6.80;99.90;;;;;;5312721;26;20083;-67
2024/04/21 13:01:54;;;;;;;1.38;1.10;;;6.90;99.90;;;;;;5314205;26;20009;-67